Observations for BENSON RAF, United Kingdom (EGUB)

EGUB 241950Z 21014KT 9999 -RA BKN015 13/10 Q1008 WHT TEMPO SCT014 GRN   
EGUB 241914Z 21012KT 9999 -RA SCT018 SCT027 BKN110 13/10 Q1008 WHT TEMPO 7000 -RADZ SCT014 GRN
EGUB 241850Z 21015KT 9999 SCT014 BKN028 13/10 Q1008 GRN TEMPO 5000 -RADZ GRN
EGUB 241750Z 20017KT 9999 -DZ BKN012 13/11 Q1008 GRN TEMPO 5000 -RADZ GRN   
EGUB 241650Z 20016KT 9999 BKN010 BKN016 13/11 Q1009 GRN TEMPO 5000 -RADZ GRN
EGUB 241615Z 19014KT 9999 -DZ BKN009 13/12 Q1009 GRN TEMPO 5000 -RADZ GRN
EGUB 241536Z 20015G25KT 7000 -DZ BKN010 13/11 Q1010 GRN TEMPO 9999 NSW GRN  
EGUB 241536Z 20015G25KT 7000 -DZ BKN010 13/11 Q1010 GRN TEMPO 9999 NSW GRN
EGUB 241450Z 20017G27KT 9999 BKN013 14/11 Q1011 GRN TEMPO 5000 -RADZ GRN
EGUB 241340Z 20015KT 9999 OVC024 15/09 Q1012 WHT BECMG BKN014 GRN   
EGUB 241340Z 20015KT 9999 OVC024 15/09 Q1012 WHT BECMG BKN014 GRN
EGUB 241250Z 18014KT 9999 FEW020 OVC038 15/08 Q1012 BLU BECMG BKN020 WHT
EGUB 241150Z 18009KT 9999 FEW020 OVC050 14/09 Q1014 BLU NOSIG   
EGUB 241050Z 20009KT 9999 FEW020 OVC050 13/08 Q1015 BLU NOSIG   
EGUB 240950Z 20005KT 9999 FEW020 OVC060 12/08 Q1015 BLU NOSIG   
EGUB 240850Z 24005KT 9999 -RA FEW020 OVC060 12/08 Q1015 BLU NOSIG   
EGUB 240750Z 23009KT 9999 FEW017 OVC080 11/08 Q1016 BLU TEMPO SCT015 WHT
EGUB 240650Z 24007KT 9999 FEW013 SCT090 BKN120 11/08 Q1015 BLU TEMPO SCT013 GRN 
EGUB 240630Z 23008KT 9999 FEW013 BKN110 BKN250 11/08 Q1015 BLU TEMPO SCT013 GRN
EGUB 240550Z 23006KT 9999 SCT014 BKN110 BKN250 11/09 Q1015 GRN TEMPO FEW014 BLU 
EGUB 240450Z AUTO 22007KT 9999 // BKN110/// 11/09 Q1014 
EGUB 240350Z AUTO 24011KT 9999 // BKN017/// BKN130/// 11/08 Q1015   
EGUB 240250Z AUTO 25011KT 9999 // FEW022/// BKN120/// 12/07 Q1015   
EGUB 240150Z AUTO 24010KT 9999 // FEW017/// BKN021/// BKN100/// 12/08 Q1014 
EGUB 240050Z AUTO 23008KT 9999 // BKN013/// BKN017/// 11/09 Q1015   
EGUB 232350Z AUTO 21010KT 9999 // OVC014/// 11/08 Q1015 
EGUB 232250Z AUTO 21012KT 9999 // OVC018/// 11/08 Q1015 
EGUB 232150Z 21012KT 9999 BKN021 12/08 Q1015 WHT BECMG BKN014 GRN   
EGUB 232050Z 21012KT 9999 SCT028 BKN130 OVC250 12/07 Q1015 BLU BECMG BKN024 WHT 
EGUB 231950Z 22010KT 9999 FEW032 SCT060 BKN160 13/08 Q1015 BLU BECMG SCT020 WHT